Time;durP1;ratioP1;P1;durP2;ratioP2;P2;SDS_P1;SDS_P2;PMS_P1;PMS_P2;Temp;Humidity;BMP_temperature;BMP_pressure;BME280_temperature;BME280_humidity;BME280_pressure;Samples;Min_cycle;Max_cycle;Signal;HPM_P1;HPM_P2
2021/09/14 00:02:27;;;;;;;23.33;21.80;;;17.90;99.90;;;;;;4935433;29;20505;-73
2021/09/14 00:04:53;;;;;;;24.50;22.77;;;17.90;99.90;;;;;;4935173;29;20450;-72
2021/09/14 00:07:20;;;;;;;25.10;23.37;;;17.90;99.90;;;;;;4935682;29;20486;-72
2021/09/14 00:09:47;;;;;;;25.13;23.13;;;17.90;99.90;;;;;;4935425;29;20452;-72
2021/09/14 00:12:13;;;;;;;25.80;23.60;;;17.90;99.90;;;;;;4935141;29;20998;-72
2021/09/14 00:14:40;;;;;;;25.00;23.27;;;17.80;99.90;;;;;;4935261;29;20575;-72
2021/09/14 00:17:07;;;;;;;25.20;23.60;;;17.80;99.90;;;;;;4935379;29;20958;-73
2021/09/14 00:19:35;;;;;;;24.97;23.40;;;17.80;99.90;;;;;;4935045;29;20454;-73
2021/09/14 00:22:02;;;;;;;24.40;22.80;;;17.70;99.90;;;;;;4935307;29;20465;-73
2021/09/14 00:24:29;;;;;;;24.77;23.10;;;17.70;99.90;;;;;;4935135;29;20458;-73
2021/09/14 00:26:55;;;;;;;25.23;23.50;;;17.70;99.90;;;;;;4935070;29;20815;-73
2021/09/14 00:29:22;;;;;;;25.50;23.50;;;17.70;99.90;;;;;;4935282;29;20458;-72
2021/09/14 00:31:49;;;;;;;25.93;23.67;;;17.70;99.90;;;;;;4935273;29;20868;-73
2021/09/14 00:34:15;;;;;;;25.00;23.37;;;17.70;99.90;;;;;;4935181;29;20465;-73
2021/09/14 00:36:43;;;;;;;24.70;23.20;;;17.70;99.90;;;;;;4934902;29;20500;-73
2021/09/14 00:39:10;;;;;;;24.67;23.10;;;17.70;99.90;;;;;;4935167;29;20828;-72
2021/09/14 00:41:37;;;;;;;23.60;22.03;;;17.80;99.90;;;;;;4935245;29;20820;-72
2021/09/14 00:44:04;;;;;;;24.70;23.07;;;17.70;99.90;;;;;;4935092;29;20460;-72
2021/09/14 00:46:31;;;;;;;26.30;24.20;;;17.80;99.90;;;;;;4935077;29;20476;-72
2021/09/14 00:48:58;;;;;;;23.83;22.33;;;17.70;99.90;;;;;;4934747;29;20462;-72
2021/09/14 00:51:25;;;;;;;26.30;24.60;;;17.80;99.90;;;;;;4934984;29;20457;-72
2021/09/14 00:53:53;;;;;;;25.03;23.33;;;17.70;99.90;;;;;;4934705;29;20805;-72
2021/09/14 00:56:20;;;;;;;24.90;23.37;;;17.70;99.90;;;;;;4934878;29;20485;-72
2021/09/14 00:58:47;;;;;;;25.37;23.87;;;17.70;99.90;;;;;;4934558;29;20457;-72
2021/09/14 01:01:13;;;;;;;24.87;23.00;;;17.60;99.90;;;;;;4934539;29;20480;-72
2021/09/14 01:03:40;;;;;;;24.53;22.73;;;17.60;99.90;;;;;;4934779;29;20462;-72
2021/09/14 01:06:07;;;;;;;25.20;23.40;;;17.60;99.90;;;;;;4934790;29;20481;-73
2021/09/14 01:08:35;;;;;;;25.43;23.63;;;17.60;99.90;;;;;;4934509;29;21064;-73
2021/09/14 01:11:05;;;;;;;24.20;22.50;;;17.60;99.90;;;;;;4934215;29;20454;-73
2021/09/14 01:13:32;;;;;;;25.67;23.97;;;17.60;99.90;;;;;;4934498;29;20453;-72
2021/09/14 01:16:05;;;;;;;24.97;23.10;;;17.60;99.90;;;;;;4933576;29;20848;-73
2021/09/14 01:18:32;;;;;;;27.43;24.97;;;17.60;99.90;;;;;;4933979;29;20820;-73
2021/09/14 01:20:59;;;;;;;25.10;23.43;;;17.60;99.90;;;;;;4934206;29;20484;-72
2021/09/14 01:23:27;;;;;;;25.23;23.57;;;17.60;99.90;;;;;;4934115;29;20457;-72
2021/09/14 01:25:53;;;;;;;24.53;23.00;;;17.60;99.90;;;;;;4934151;29;20454;-73
2021/09/14 01:28:20;;;;;;;26.87;25.03;;;17.60;99.90;;;;;;4934293;29;20449;-73
2021/09/14 01:30:47;;;;;;;25.27;23.17;;;17.60;99.90;;;;;;4933893;29;20951;-72
2021/09/14 01:33:15;;;;;;;26.43;24.50;;;17.60;99.90;;;;;;4933770;29;20991;-73
2021/09/14 01:35:43;;;;;;;24.60;22.80;;;17.60;99.90;;;;;;4933705;29;20987;-72
2021/09/14 01:38:10;;;;;;;23.20;21.50;;;17.60;99.90;;;;;;4933874;29;20450;-72
2021/09/14 01:40:38;;;;;;;22.53;21.07;;;17.50;99.90;;;;;;4934054;29;20549;-72
2021/09/14 01:43:06;;;;;;;25.57;23.67;;;17.50;99.90;;;;;;4933744;29;20480;-72
2021/09/14 01:45:32;;;;;;;24.87;22.60;;;17.50;99.90;;;;;;4933654;29;20457;-73
2021/09/14 01:47:59;;;;;;;24.97;23.30;;;17.50;99.90;;;;;;4933909;29;20480;-73
2021/09/14 01:50:26;;;;;;;27.40;25.30;;;17.50;99.90;;;;;;4933743;29;20468;-72
2021/09/14 01:52:53;;;;;;;27.53;25.63;;;17.50;99.90;;;;;;4933901;29;20490;-72
2021/09/14 01:55:20;;;;;;;25.73;24.00;;;17.40;99.90;;;;;;4933757;29;20462;-72
2021/09/14 01:57:49;;;;;;;28.60;26.23;;;17.40;99.90;;;;;;4933682;29;20737;-71
2021/09/14 02:00:20;;;;;;;28.53;25.43;;;17.40;99.90;;;;;;4933619;29;20513;-72
2021/09/14 02:03:03;;;;;;;26.37;24.73;;;17.40;99.90;;;;;;4933445;29;20565;-72
2021/09/14 02:05:47;;;;;;;27.63;25.83;;;17.30;99.90;;;;;;4933898;29;20522;-72
2021/09/14 02:08:28;;;;;;;25.73;23.73;;;17.30;99.90;;;;;;4933329;29;20472;-72
2021/09/14 02:33:45;;;;;;;24.83;22.77;;;17.00;99.90;;;;;;4937400;29;20477;-72
2021/09/14 02:39:14;;;;;;;25.13;23.43;;;16.90;99.90;;;;;;4902710;29;20425;-72
2021/09/14 03:00:46;;;;;;;24.83;23.20;;;16.70;99.90;;;;;;4936726;29;21023;-73
2021/09/14 03:03:14;;;;;;;25.30;23.60;;;16.70;99.90;;;;;;4936361;29;20481;-74
2021/09/14 03:05:41;;;;;;;27.30;25.33;;;16.70;99.90;;;;;;4936589;29;20450;-74
2021/09/14 03:08:07;;;;;;;25.40;23.37;;;16.70;99.90;;;;;;4936531;29;20486;-74
2021/09/14 03:10:34;;;;;;;26.00;24.03;;;16.70;99.90;;;;;;4936558;29;20457;-73
2021/09/14 03:13:01;;;;;;;28.07;26.17;;;16.70;99.90;;;;;;4936540;29;20464;-73
2021/09/14 03:15:28;;;;;;;26.70;24.50;;;16.80;99.90;;;;;;4936232;29;20453;-73
2021/09/14 03:17:54;;;;;;;26.80;25.10;;;16.80;99.90;;;;;;4936309;29;20460;-73
2021/09/14 03:20:22;;;;;;;27.40;25.20;;;16.80;99.90;;;;;;4936418;29;20457;-74
2021/09/14 03:22:49;;;;;;;26.33;24.33;;;16.80;99.90;;;;;;4936480;29;20822;-73
2021/09/14 03:25:16;;;;;;;27.23;25.53;;;16.80;99.90;;;;;;4936368;29;20461;-73
2021/09/14 03:27:42;;;;;;;28.23;25.70;;;16.80;99.90;;;;;;4936395;29;20445;-73
2021/09/14 03:30:10;;;;;;;26.27;24.40;;;16.80;99.90;;;;;;4936518;29;20466;-73
2021/09/14 03:32:37;;;;;;;26.43;24.00;;;16.80;99.90;;;;;;4936441;29;20449;-73
2021/09/14 03:35:04;;;;;;;24.73;23.03;;;16.80;99.90;;;;;;4936651;29;20445;-73
2021/09/14 03:37:32;;;;;;;25.17;23.57;;;16.90;99.90;;;;;;4936144;29;20500;-73
2021/09/14 03:39:59;;;;;;;26.30;24.53;;;16.80;99.90;;;;;;4935616;29;20449;-72
2021/09/14 03:42:26;;;;;;;26.93;24.93;;;16.80;99.90;;;;;;4935924;29;20457;-74
2021/09/14 03:44:52;;;;;;;26.97;25.07;;;16.90;99.90;;;;;;4936400;29;20445;-74
2021/09/14 03:47:19;;;;;;;27.33;25.23;;;16.80;99.90;;;;;;4936152;29;20457;-73
2021/09/14 03:49:46;;;;;;;25.07;23.47;;;16.80;99.90;;;;;;4935985;29;20449;-73
2021/09/14 03:52:12;;;;;;;25.80;24.00;;;16.80;99.90;;;;;;4935873;29;21093;-73
2021/09/14 03:54:40;;;;;;;24.80;23.00;;;16.80;99.90;;;;;;4935936;29;20461;-73
2021/09/14 03:57:07;;;;;;;25.40;23.90;;;16.80;99.90;;;;;;4936100;29;20850;-73
2021/09/14 03:59:39;;;;;;;25.97;24.17;;;16.80;99.90;;;;;;4935787;29;20462;-73
2021/09/14 04:02:12;;;;;;;26.03;24.37;;;16.70;99.90;;;;;;4935957;29;20493;-73
2021/09/14 04:04:47;;;;;;;26.33;24.10;;;16.70;99.90;;;;;;4935831;29;20504;-73
2021/09/14 04:07:23;;;;;;;25.10;23.30;;;16.60;99.90;;;;;;4935815;29;20437;-73
2021/09/14 04:09:51;;;;;;;24.47;22.93;;;16.60;99.90;;;;;;4936048;29;20457;-73
2021/09/14 04:12:18;;;;;;;25.17;23.60;;;16.60;99.90;;;;;;4935891;29;20461;-74
2021/09/14 04:14:45;;;;;;;26.50;24.73;;;16.60;99.90;;;;;;4935767;29;20477;-74
2021/09/14 04:17:11;;;;;;;25.73;23.97;;;16.50;99.90;;;;;;4935738;29;20845;-74
2021/09/14 04:19:38;;;;;;;25.27;23.70;;;16.50;99.90;;;;;;4935542;29;20464;-71
2021/09/14 04:22:05;;;;;;;24.77;23.20;;;16.50;99.90;;;;;;4935772;29;20449;-71
2021/09/14 04:24:32;;;;;;;25.57;23.77;;;16.50;99.90;;;;;;4935576;29;20461;-71
2021/09/14 04:27:00;;;;;;;26.03;24.13;;;16.40;99.90;;;;;;4935496;29;20453;-72
2021/09/14 04:29:26;;;;;;;26.10;24.40;;;16.40;99.90;;;;;;4935466;29;20453;-71
2021/09/14 04:31:53;;;;;;;25.83;24.00;;;16.40;99.90;;;;;;4935318;29;20458;-72
2021/09/14 04:34:20;;;;;;;24.93;23.37;;;16.40;99.90;;;;;;4935543;29;20477;-71
2021/09/14 04:36:47;;;;;;;25.13;23.53;;;16.40;99.90;;;;;;4935211;29;20493;-71
2021/09/14 04:39:13;;;;;;;25.13;23.43;;;16.40;99.90;;;;;;4935403;29;20556;-71
2021/09/14 04:41:40;;;;;;;23.63;21.90;;;16.30;99.90;;;;;;4935131;29;20461;-71
2021/09/14 04:44:08;;;;;;;23.40;22.00;;;16.30;99.90;;;;;;4936812;29;20460;-72
2021/09/14 04:46:35;;;;;;;24.13;22.63;;;16.30;99.90;;;;;;4937532;29;20450;-72
2021/09/14 04:49:01;;;;;;;22.80;21.30;;;16.30;99.90;;;;;;4937773;29;20944;-71
2021/09/14 04:51:28;;;;;;;23.63;22.23;;;16.30;99.90;;;;;;4935337;29;20489;-72
2021/09/14 04:53:55;;;;;;;26.00;24.20;;;16.30;99.90;;;;;;4934796;29;20983;-71
2021/09/14 04:56:22;;;;;;;24.30;22.90;;;16.30;99.90;;;;;;4934851;29;20489;-72
2021/09/14 04:58:50;;;;;;;25.20;23.60;;;16.20;99.90;;;;;;4935031;29;20453;-71
2021/09/14 05:01:19;;;;;;;26.10;24.33;;;16.20;99.90;;;;;;4934910;29;20839;-72
2021/09/14 05:03:46;;;;;;;25.27;23.47;;;16.20;99.90;;;;;;4934367;29;20485;-74
2021/09/14 05:06:13;;;;;;;25.50;23.70;;;16.20;99.90;;;;;;4934778;29;21224;-71
2021/09/14 05:08:40;;;;;;;25.57;23.87;;;16.20;99.90;;;;;;4934809;29;20453;-72
2021/09/14 05:11:07;;;;;;;25.50;23.70;;;16.20;99.90;;;;;;4934687;29;20449;-72
2021/09/14 05:13:36;;;;;;;26.40;24.57;;;16.20;99.90;;;;;;4934858;29;20453;-71
2021/09/14 05:16:02;;;;;;;26.57;24.90;;;16.20;99.90;;;;;;4934610;29;20825;-71
2021/09/14 05:18:31;;;;;;;26.23;24.53;;;16.30;99.90;;;;;;4934498;29;20535;-71
2021/09/14 05:20:58;;;;;;;26.10;24.37;;;16.20;99.90;;;;;;4934563;29;20497;-72
2021/09/14 05:23:30;;;;;;;25.83;24.13;;;16.20;99.90;;;;;;4934551;29;20512;-72
2021/09/14 05:25:57;;;;;;;27.10;25.00;;;16.20;99.90;;;;;;4934647;29;20465;-71
2021/09/14 05:28:24;;;;;;;31.90;29.70;;;16.20;99.90;;;;;;4934225;29;20461;-71
2021/09/14 05:30:51;;;;;;;31.20;28.73;;;16.20;99.90;;;;;;4934773;29;20446;-71
2021/09/14 05:33:18;;;;;;;28.97;26.97;;;16.20;99.90;;;;;;4934462;29;20455;-73
2021/09/14 05:35:49;;;;;;;29.43;27.40;;;16.30;99.90;;;;;;4934478;29;21031;-71
2021/09/14 05:38:17;;;;;;;27.30;24.97;;;16.30;99.90;;;;;;4934112;29;20493;-71
2021/09/14 05:40:44;;;;;;;31.10;28.47;;;16.40;99.90;;;;;;4934205;29;20869;-72
2021/09/14 05:43:10;;;;;;;30.73;28.30;;;16.40;99.90;;;;;;4934357;29;20461;-71
2021/09/14 05:45:37;;;;;;;29.70;27.23;;;16.50;99.90;;;;;;4934430;29;20854;-72
2021/09/14 05:48:04;;;;;;;29.93;27.77;;;16.50;99.90;;;;;;4934289;29;20456;-72
2021/09/14 05:50:31;;;;;;;27.57;25.37;;;16.60;99.90;;;;;;4933926;29;20462;-72
2021/09/14 05:52:59;;;;;;;27.07;25.20;;;16.70;99.90;;;;;;4934312;29;20457;-71
2021/09/14 05:55:26;;;;;;;25.00;23.37;;;17.00;99.90;;;;;;4934412;29;20792;-71
2021/09/14 05:57:53;;;;;;;26.73;24.73;;;17.40;99.90;;;;;;4934254;29;20516;-71
2021/09/14 06:00:21;;;;;;;28.97;26.37;;;17.70;99.90;;;;;;4934003;29;20513;-71
2021/09/14 06:02:48;;;;;;;22.70;21.30;;;18.00;99.90;;;;;;4933820;29;20493;-72
2021/09/14 06:05:15;;;;;;;24.13;22.53;;;18.30;99.90;;;;;;4934246;29;20463;-72
2021/09/14 06:07:41;;;;;;;23.83;22.20;;;18.60;99.90;;;;;;4934158;29;20449;-72
2021/09/14 06:10:10;;;;;;;24.37;22.57;;;18.80;99.90;;;;;;4934363;29;20499;-72
2021/09/14 06:12:37;;;;;;;22.90;21.07;;;19.10;99.90;;;;;;4933874;29;20854;-74
2021/09/14 06:15:05;;;;;;;22.70;21.30;;;19.30;99.90;;;;;;4934341;29;20457;-72
2021/09/14 06:17:31;;;;;;;24.40;22.47;;;19.30;99.90;;;;;;4933970;29;20504;-72
2021/09/14 06:19:58;;;;;;;22.87;21.13;;;19.50;99.90;;;;;;4934126;29;20457;-72
2021/09/14 06:22:25;;;;;;;24.60;22.93;;;19.60;99.90;;;;;;4945974;29;20555;-72
2021/09/14 06:24:52;;;;;;;22.80;21.20;;;19.80;99.90;;;;;;4953034;29;20452;-72
2021/09/14 06:27:20;;;;;;;26.27;24.37;;;20.10;99.90;;;;;;4953105;29;20931;-72
2021/09/14 06:29:47;;;;;;;32.50;30.27;;;20.40;99.90;;;;;;4952921;29;20456;-72
2021/09/14 06:32:14;;;;;;;28.50;25.93;;;20.60;99.90;;;;;;4952937;29;20456;-75
2021/09/14 06:34:41;;;;;;;27.67;25.37;;;20.90;99.90;;;;;;4953014;29;20994;-74
2021/09/14 06:37:08;;;;;;;25.17;23.17;;;21.20;99.90;;;;;;4952735;29;20492;-72
2021/09/14 06:39:35;;;;;;;24.23;21.90;;;21.60;99.90;;;;;;4952904;29;20459;-75
2021/09/14 06:42:03;;;;;;;22.87;20.47;;;21.70;99.90;;;;;;4952779;29;20460;-74
2021/09/14 06:44:32;;;;;;;22.53;21.13;;;21.80;99.90;;;;;;4953049;29;20452;-74
2021/09/14 06:46:59;;;;;;;22.90;21.17;;;21.90;99.90;;;;;;4953000;29;20456;-74
2021/09/14 06:49:29;;;;;;;23.40;21.70;;;22.00;99.90;;;;;;4952974;29;20459;-75
2021/09/14 06:51:55;;;;;;;25.23;22.67;;;22.10;99.90;;;;;;4952656;29;20453;-74
2021/09/14 06:54:22;;;;;;;23.47;21.87;;;22.00;99.90;;;;;;4953078;29;20963;-74
2021/09/14 06:56:49;;;;;;;20.70;19.43;;;22.00;99.90;;;;;;4952816;29;20468;-74
2021/09/14 06:59:15;;;;;;;21.80;20.20;;;21.90;99.90;;;;;;4952993;29;20459;-74
2021/09/14 07:01:43;;;;;;;23.13;21.50;;;22.00;99.90;;;;;;4952717;28;20469;-71
2021/09/14 07:04:10;;;;;;;21.30;19.90;;;22.20;99.90;;;;;;4952549;29;20460;-75
2021/09/14 07:06:37;;;;;;;21.90;20.50;;;22.50;99.90;;;;;;4952458;29;20471;-73
2021/09/14 07:09:04;;;;;;;23.67;22.07;;;23.10;99.90;;;;;;4952870;29;20451;-74
2021/09/14 07:11:30;;;;;;;23.50;21.90;;;23.40;99.90;;;;;;4951019;29;20961;-73
2021/09/14 07:13:58;;;;;;;20.80;19.40;;;24.10;99.90;;;;;;4953891;28;20464;-73
2021/09/14 07:16:25;;;;;;;20.53;19.43;;;24.30;99.90;;;;;;4956031;29;20448;-74
2021/09/14 07:18:53;;;;;;;22.00;20.77;;;24.30;99.90;;;;;;4956324;29;20484;-74
2021/09/14 07:21:20;;;;;;;21.80;20.40;;;24.50;99.90;;;;;;4956077;29;20456;-74
2021/09/14 07:23:46;;;;;;;23.27;20.97;;;24.70;99.90;;;;;;4956285;29;20456;-74
2021/09/14 07:26:13;;;;;;;24.87;22.77;;;24.80;99.90;;;;;;4955945;29;20445;-74
2021/09/14 07:28:40;;;;;;;21.97;20.27;;;25.20;99.90;;;;;;4955682;29;20445;-73
2021/09/14 07:31:08;;;;;;;23.33;21.37;;;25.00;99.90;;;;;;4955913;29;20479;-73
2021/09/14 07:33:34;;;;;;;21.20;19.57;;;24.70;99.90;;;;;;4955908;29;20452;-76
2021/09/14 07:36:02;;;;;;;21.60;19.90;;;24.50;99.90;;;;;;4955759;29;20947;-73
2021/09/14 07:38:29;;;;;;;20.33;19.23;;;24.40;99.90;;;;;;4955527;29;20495;-76
2021/09/14 07:40:56;;;;;;;21.13;19.73;;;24.10;99.90;;;;;;4955603;29;20464;-73
2021/09/14 07:43:23;;;;;;;20.70;19.13;;;24.40;99.90;;;;;;4955674;29;20448;-75
2021/09/14 07:45:49;;;;;;;20.33;18.93;;;24.80;99.90;;;;;;4956110;29;20475;-75
2021/09/14 07:48:16;;;;;;;19.80;18.70;;;24.80;99.90;;;;;;4955581;29;20455;-76
2021/09/14 07:50:43;;;;;;;18.50;17.60;;;24.70;99.90;;;;;;4955646;29;20460;-76
2021/09/14 07:53:11;;;;;;;20.00;18.80;;;25.00;99.90;;;;;;4955286;29;20947;-72
2021/09/14 07:55:38;;;;;;;20.00;18.90;;;25.40;99.90;;;;;;4955233;29;20958;-74
2021/09/14 07:58:05;;;;;;;19.83;18.40;;;25.80;99.90;;;;;;4955327;29;20492;-74
2021/09/14 08:00:32;;;;;;;23.17;21.43;;;26.30;99.90;;;;;;4955242;28;20572;-76
2021/09/14 08:02:59;;;;;;;19.67;18.57;;;26.40;99.90;;;;;;4955005;29;20481;-74
2021/09/14 08:05:27;;;;;;;20.83;19.53;;;26.70;99.60;;;;;;4955223;29;20853;-73
2021/09/14 08:07:54;;;;;;;19.77;18.43;;;27.10;98.50;;;;;;4955288;29;20455;-74
2021/09/14 08:10:22;;;;;;;19.17;18.10;;;26.80;98.70;;;;;;4955630;29;20456;-74
2021/09/14 08:12:49;;;;;;;19.67;18.47;;;26.90;98.50;;;;;;4955048;29;20461;-75
2021/09/14 08:15:16;;;;;;;20.20;19.10;;;27.50;98.20;;;;;;4955421;29;20448;-75
2021/09/14 08:17:42;;;;;;;20.97;19.47;;;28.10;96.80;;;;;;4955100;29;20618;-74
2021/09/14 08:20:09;;;;;;;21.00;19.90;;;28.80;95.20;;;;;;4954877;29;20452;-75
2021/09/14 08:22:36;;;;;;;19.73;18.57;;;29.00;94.70;;;;;;4958970;28;20954;-74
2021/09/14 08:25:03;;;;;;;20.23;19.03;;;29.20;94.40;;;;;;4965327;28;20444;-74
2021/09/14 08:27:31;;;;;;;19.67;18.77;;;29.40;93.60;;;;;;4974448;28;20452;-74
2021/09/14 08:29:58;;;;;;;20.90;19.37;;;29.90;92.60;;;;;;4974063;28;20444;-74
2021/09/14 08:32:25;;;;;;;19.63;18.60;;;29.70;92.30;;;;;;4973898;28;20866;-74
2021/09/14 08:34:51;;;;;;;19.63;18.53;;;29.20;92.60;;;;;;4969221;28;20527;-74
2021/09/14 08:37:18;;;;;;;19.63;18.70;;;29.50;92.90;;;;;;4954316;29;20951;-72
2021/09/14 08:39:45;;;;;;;21.83;20.37;;;29.30;92.50;;;;;;4954409;29;20468;-72
2021/09/14 08:42:13;;;;;;;19.93;18.90;;;28.90;93.10;;;;;;4954307;29;20471;-72
2021/09/14 08:44:43;;;;;;;19.67;18.70;;;28.50;93.70;;;;;;4954346;29;20457;-72
2021/09/14 08:47:10;;;;;;;20.20;19.03;;;28.60;93.80;;;;;;4954506;29;20457;-72
2021/09/14 08:49:37;;;;;;;20.90;19.60;;;28.50;93.70;;;;;;4954678;29;20793;-71
2021/09/14 08:52:04;;;;;;;18.87;17.70;;;28.50;93.80;;;;;;4954443;29;20460;-71
2021/09/14 08:54:31;;;;;;;19.17;18.17;;;28.50;94.00;;;;;;4954089;29;20464;-72
2021/09/14 08:56:58;;;;;;;20.43;19.10;;;28.10;94.10;;;;;;4954191;29;20939;-72
2021/09/14 08:59:29;;;;;;;21.57;19.60;;;28.30;94.00;;;;;;4954471;28;20484;-70
2021/09/14 09:02:05;;;;;;;19.70;18.60;;;28.60;93.70;;;;;;4953502;29;20831;-70
2021/09/14 09:04:32;;;;;;;19.20;18.07;;;28.30;93.90;;;;;;4953973;29;20456;-69
2021/09/14 09:06:58;;;;;;;18.97;17.87;;;28.20;94.50;;;;;;4953965;29;20511;-70
2021/09/14 09:09:26;;;;;;;20.53;19.23;;;28.50;94.00;;;;;;4953699;29;20931;-70
2021/09/14 09:11:58;;;;;;;19.37;18.17;;;28.90;93.40;;;;;;4953910;29;20452;-70
2021/09/14 09:14:36;;;;;;;18.97;18.17;;;29.40;92.50;;;;;;4953574;29;20448;-70
2021/09/14 09:17:10;;;;;;;19.40;18.60;;;29.60;92.00;;;;;;4953451;29;20488;-69
2021/09/14 09:19:37;;;;;;;19.57;18.37;;;29.90;92.20;;;;;;4953795;29;20530;-69
2021/09/14 09:22:05;;;;;;;19.60;18.60;;;30.30;91.40;;;;;;4954008;29;20448;-69
2021/09/14 09:24:43;;;;;;;19.37;18.47;;;30.30;91.20;;;;;;4953460;29;20459;-69
2021/09/14 09:27:11;;;;;;;19.10;18.10;;;30.00;91.40;;;;;;4953468;29;20461;-69
2021/09/14 09:29:38;;;;;;;19.80;18.50;;;30.10;91.70;;;;;;4953894;29;20815;-69
2021/09/14 09:32:07;;;;;;;19.40;18.33;;;30.10;91.60;;;;;;4953470;29;21017;-69
2021/09/14 09:34:33;;;;;;;20.00;19.00;;;30.10;91.40;;;;;;4953739;29;20461;-69
2021/09/14 09:37:04;;;;;;;19.47;18.10;;;30.10;91.40;;;;;;4953103;28;20453;-69
2021/09/14 09:39:44;;;;;;;19.23;17.80;;;30.20;91.60;;;;;;4953582;29;20514;-69
2021/09/14 09:42:12;;;;;;;20.03;18.80;;;30.50;91.20;;;;;;4953414;29;20483;-69
2021/09/14 09:44:40;;;;;;;19.87;18.80;;;30.70;90.80;;;;;;4953714;29;20468;-69
2021/09/14 09:47:08;;;;;;;20.10;19.20;;;31.20;89.90;;;;;;4953442;29;20507;-69
2021/09/14 09:49:34;;;;;;;19.63;18.40;;;31.00;90.10;;;;;;4953650;29;20851;-69
2021/09/14 09:52:01;;;;;;;19.67;18.57;;;31.40;89.30;;;;;;4953653;29;20455;-68
2021/09/14 09:54:28;;;;;;;20.27;19.37;;;31.20;90.00;;;;;;4953574;29;20452;-70
2021/09/14 09:56:54;;;;;;;18.90;18.10;;;31.50;89.10;;;;;;4953225;29;20966;-74
2021/09/14 09:59:21;;;;;;;21.60;19.60;;;32.10;87.70;;;;;;4953180;28;21028;-74
2021/09/14 10:02:09;;;;;;;18.37;17.50;;;32.90;85.10;;;;;;4953020;29;20456;-75
2021/09/14 10:04:44;;;;;;;19.93;18.73;;;32.90;83.20;;;;;;4952816;29;20452;-75
2021/09/14 10:07:13;;;;;;;19.37;18.47;;;32.90;83.70;;;;;;4952852;29;20464;-75
2021/09/14 10:09:50;;;;;;;18.60;17.80;;;33.30;82.00;;;;;;4952770;29;20461;-74
2021/09/14 10:12:23;;;;;;;17.70;16.97;;;32.70;83.60;;;;;;4952654;29;20937;-74
2021/09/14 10:15:00;;;;;;;19.30;18.30;;;32.60;82.50;;;;;;4952657;29;20504;-74
2021/09/14 10:17:28;;;;;;;18.77;17.70;;;32.10;84.30;;;;;;4952490;29;20455;-74
2021/09/14 10:19:56;;;;;;;19.00;18.10;;;32.20;84.90;;;;;;4952699;29;20488;-75
2021/09/14 10:22:28;;;;;;;18.67;17.63;;;32.10;84.60;;;;;;4952899;29;20465;-75
2021/09/14 10:24:59;;;;;;;19.20;18.00;;;31.70;85.30;;;;;;4952705;29;20511;-75
2021/09/14 10:27:37;;;;;;;18.23;17.33;;;31.90;85.00;;;;;;4952346;29;20799;-75
2021/09/14 10:30:04;;;;;;;19.03;18.10;;;31.80;85.40;;;;;;4952738;29;20460;-74
2021/09/14 10:32:40;;;;;;;17.50;16.77;;;32.10;84.40;;;;;;4952632;29;20947;-74
2021/09/14 10:35:07;;;;;;;18.67;17.77;;;32.80;82.80;;;;;;4952903;29;20452;-74
2021/09/14 10:37:36;;;;;;;18.73;17.87;;;32.80;81.60;;;;;;4952745;29;20459;-74
2021/09/14 10:40:11;;;;;;;18.70;17.70;;;32.50;83.20;;;;;;4952672;29;20495;-75
2021/09/14 10:42:40;;;;;;;19.30;18.50;;;33.00;82.60;;;;;;4952720;29;20448;-75
2021/09/14 10:45:09;;;;;;;19.73;18.93;;;33.80;79.60;;;;;;4952520;29;20963;-75
2021/09/14 10:47:42;;;;;;;19.20;18.37;;;34.60;77.70;;;;;;4952764;28;20955;-75
2021/09/14 10:50:10;;;;;;;18.90;18.10;;;35.00;76.10;;;;;;4955592;29;20939;-75
2021/09/14 10:52:39;;;;;;;19.73;18.90;;;34.80;75.30;;;;;;4956332;29;20459;-74
2021/09/14 10:55:09;;;;;;;21.83;20.63;;;34.80;74.70;;;;;;4956290;29;20469;-75
2021/09/14 10:57:37;;;;;;;19.83;18.90;;;35.10;74.40;;;;;;4956268;29;20827;-75
2021/09/14 11:00:07;;;;;;;20.60;19.50;;;34.50;75.10;;;;;;4956005;28;20492;-76
2021/09/14 11:02:34;;;;;;;20.60;19.40;;;33.90;76.90;;;;;;4956088;29;20492;-75
2021/09/14 11:05:03;;;;;;;20.73;19.50;;;33.80;76.80;;;;;;4956156;29;20453;-75
2021/09/14 11:07:30;;;;;;;19.87;18.77;;;33.40;79.10;;;;;;4955894;29;20947;-75
2021/09/14 11:09:59;;;;;;;20.00;19.13;;;33.60;78.10;;;;;;4955913;29;20448;-75
2021/09/14 11:12:27;;;;;;;19.57;18.60;;;33.90;78.10;;;;;;4955848;29;20468;-75
2021/09/14 11:14:55;;;;;;;19.30;18.50;;;35.20;74.40;;;;;;4955881;29;20456;-75
2021/09/14 11:17:28;;;;;;;19.10;17.87;;;35.20;73.60;;;;;;4955664;29;20449;-75
2021/09/14 11:19:55;;;;;;;18.83;17.73;;;35.60;73.70;;;;;;4955716;29;20492;-76
2021/09/14 11:22:32;;;;;;;19.97;19.10;;;36.30;72.10;;;;;;4955919;29;20463;-76
2021/09/14 11:24:59;;;;;;;22.23;21.00;;;37.30;68.50;;;;;;4955630;29;20460;-75
2021/09/14 11:27:26;;;;;;;21.47;20.37;;;38.60;65.10;;;;;;4955550;29;20824;-76
2021/09/14 11:29:52;;;;;;;20.47;19.67;;;39.30;61.00;;;;;;4955688;29;20499;-76
2021/09/14 11:32:20;;;;;;;20.90;19.80;;;39.10;61.00;;;;;;4955681;29;20452;-76
2021/09/14 11:34:49;;;;;;;20.87;19.97;;;38.50;61.30;;;;;;4955494;29;20468;-76
2021/09/14 11:37:30;;;;;;;20.83;19.83;;;38.80;60.60;;;;;;4955487;29;20460;-76
2021/09/14 11:39:58;;;;;;;20.13;19.33;;;39.40;59.00;;;;;;4955437;29;20796;-75
2021/09/14 11:42:25;;;;;;;19.70;18.90;;;39.70;58.00;;;;;;4955341;29;20456;-75
2021/09/14 11:45:04;;;;;;;19.90;19.07;;;39.80;57.80;;;;;;4955453;29;20472;-76
2021/09/14 11:47:31;;;;;;;22.10;21.10;;;39.30;57.40;;;;;;4955543;29;20468;-76
2021/09/14 11:49:58;;;;;;;20.70;19.70;;;39.50;57.00;;;;;;4955330;29;20492;-77
2021/09/14 11:52:30;;;;;;;19.20;18.40;;;39.00;57.70;;;;;;4955187;29;20452;-76
2021/09/14 11:54:57;;;;;;;19.97;19.07;;;38.30;58.10;;;;;;4955047;29;20522;-75
2021/09/14 11:57:24;;;;;;;21.23;20.23;;;37.30;60.50;;;;;;4955143;29;20942;-74
2021/09/14 11:59:50;;;;;;;19.57;18.77;;;37.00;61.20;;;;;;4954654;28;20473;-75
2021/09/14 12:02:17;;;;;;;20.00;18.93;;;36.10;63.70;;;;;;4954869;29;20512;-76
2021/09/14 12:04:44;;;;;;;20.97;19.83;;;35.10;66.20;;;;;;4954757;29;20548;-76
2021/09/14 12:07:20;;;;;;;21.30;20.27;;;35.00;66.60;;;;;;4954914;29;20463;-76
2021/09/14 12:09:48;;;;;;;19.83;18.93;;;35.10;66.40;;;;;;4954588;29;20523;-75
2021/09/14 12:12:14;;;;;;;20.37;19.33;;;35.30;65.80;;;;;;4954780;29;20460;-75
2021/09/14 12:14:42;;;;;;;18.53;17.73;;;35.30;65.20;;;;;;4954784;29;20467;-75
2021/09/14 12:17:09;;;;;;;21.27;20.27;;;34.80;66.10;;;;;;4954566;29;20460;-74
2021/09/14 12:19:37;;;;;;;22.07;20.97;;;34.10;69.80;;;;;;4954974;29;20444;-76
2021/09/14 12:22:04;;;;;;;21.80;20.60;;;33.40;71.50;;;;;;4954603;29;20943;-76
2021/09/14 12:24:31;;;;;;;20.70;19.80;;;32.90;73.80;;;;;;4954532;29;20460;-76
2021/09/14 12:26:59;;;;;;;20.97;19.97;;;32.60;74.90;;;;;;4954430;29;20449;-75
2021/09/14 12:29:26;;;;;;;22.07;20.87;;;32.30;76.50;;;;;;4954413;29;20543;-74
2021/09/14 12:31:53;;;;;;;21.00;19.80;;;31.90;77.70;;;;;;4954434;29;20468;-74
2021/09/14 12:34:21;;;;;;;22.57;20.80;;;31.50;80.00;;;;;;4954375;29;20989;-75
2021/09/14 12:36:48;;;;;;;21.30;20.10;;;31.30;80.70;;;;;;4954317;29;20963;-74
2021/09/14 12:39:14;;;;;;;20.63;19.60;;;31.10;81.20;;;;;;4954268;29;20549;-74
2021/09/14 12:41:41;;;;;;;21.00;19.70;;;31.10;82.40;;;;;;4954093;29;20507;-74
2021/09/14 12:44:09;;;;;;;23.13;21.83;;;30.80;83.30;;;;;;4954206;29;20523;-74
2021/09/14 12:46:36;;;;;;;21.37;20.37;;;30.60;84.20;;;;;;4954260;29;20448;-74
2021/09/14 12:49:03;;;;;;;21.50;20.40;;;30.40;85.40;;;;;;4953988;29;20873;-74
2021/09/14 12:51:30;;;;;;;21.27;19.83;;;30.50;85.30;;;;;;4953858;29;20463;-74
2021/09/14 12:53:57;;;;;;;20.90;19.80;;;30.90;84.80;;;;;;4953856;29;20456;-74
2021/09/14 12:56:24;;;;;;;22.10;20.83;;;31.60;83.20;;;;;;4953781;29;20504;-73
2021/09/14 12:58:51;;;;;;;21.63;20.57;;;31.90;80.90;;;;;;4954088;29;20862;-74
2021/09/14 13:01:19;;;;;;;20.43;19.43;;;32.60;78.70;;;;;;4953886;28;20471;-74
2021/09/14 13:03:46;;;;;;;20.90;20.00;;;33.10;76.80;;;;;;4953698;29;20492;-74
2021/09/14 13:06:13;;;;;;;20.57;19.63;;;33.30;76.80;;;;;;4953454;29;20947;-73
2021/09/14 13:08:39;;;;;;;23.07;21.77;;;33.20;75.30;;;;;;4953710;29;21062;-73
2021/09/14 13:11:06;;;;;;;20.40;19.50;;;32.90;75.80;;;;;;4953159;28;20485;-75
2021/09/14 13:16:18;;;;;;;20.70;19.60;;;32.50;76.90;;;;;;4953620;29;20436;-75
2021/09/14 13:18:47;;;;;;;19.73;18.83;;;32.60;77.60;;;;;;4953529;29;20456;-75
2021/09/14 13:21:15;;;;;;;20.87;19.70;;;33.60;75.70;;;;;;4953462;29;20587;-75